sensor_id;sensor_type;location;lat;lon;timestamp;P1;durP1;ratioP1;P2;durP2;ratioP2
16484;SDS011;8353;47.856;12.344;2023-02-28T00:01:23;3.30;;;2.90;;
16484;SDS011;8353;47.856;12.344;2023-02-28T00:03:53;3.00;;;2.40;;
16484;SDS011;8353;47.856;12.344;2023-02-28T00:06:24;4.20;;;3.53;;
16484;SDS011;8353;47.856;12.344;2023-02-28T00:08:55;2.63;;;2.33;;
16484;SDS011;8353;47.856;12.344;2023-02-28T00:11:26;3.67;;;3.13;;
16484;SDS011;8353;47.856;12.344;2023-02-28T00:13:57;4.30;;;3.20;;
16484;SDS011;8353;47.856;12.344;2023-02-28T00:16:29;4.80;;;3.33;;
16484;SDS011;8353;47.856;12.344;2023-02-28T00:19:00;4.23;;;3.57;;
16484;SDS011;8353;47.856;12.344;2023-02-28T00:21:30;9.37;;;4.03;;
16484;SDS011;8353;47.856;12.344;2023-02-28T00:24:01;3.30;;;3.00;;
16484;SDS011;8353;47.856;12.344;2023-02-28T00:26:33;3.00;;;2.70;;
16484;SDS011;8353;47.856;12.344;2023-02-28T00:29:03;3.03;;;2.73;;
16484;SDS011;8353;47.856;12.344;2023-02-28T00:31:35;4.17;;;3.20;;
16484;SDS011;8353;47.856;12.344;2023-02-28T00:34:05;5.40;;;3.50;;
16484;SDS011;8353;47.856;12.344;2023-02-28T00:36:35;3.73;;;3.33;;
16484;SDS011;8353;47.856;12.344;2023-02-28T00:39:06;3.03;;;2.70;;
16484;SDS011;8353;47.856;12.344;2023-02-28T00:41:37;6.10;;;3.57;;
16484;SDS011;8353;47.856;12.344;2023-02-28T00:44:08;4.07;;;3.20;;
16484;SDS011;8353;47.856;12.344;2023-02-28T00:46:39;4.43;;;3.53;;
16484;SDS011;8353;47.856;12.344;2023-02-28T00:49:09;4.00;;;2.90;;
16484;SDS011;8353;47.856;12.344;2023-02-28T00:51:40;4.23;;;2.77;;
16484;SDS011;8353;47.856;12.344;2023-02-28T00:54:10;4.17;;;2.90;;
16484;SDS011;8353;47.856;12.344;2023-02-28T00:56:41;4.03;;;3.20;;
16484;SDS011;8353;47.856;12.344;2023-02-28T00:59:12;3.97;;;3.57;;
16484;SDS011;8353;47.856;12.344;2023-02-28T01:01:45;4.53;;;3.50;;
16484;SDS011;8353;47.856;12.344;2023-02-28T01:04:16;4.00;;;3.30;;
16484;SDS011;8353;47.856;12.344;2023-02-28T01:06:46;5.83;;;3.53;;
16484;SDS011;8353;47.856;12.344;2023-02-28T01:09:17;3.87;;;3.43;;
16484;SDS011;8353;47.856;12.344;2023-02-28T01:11:47;3.90;;;3.37;;
16484;SDS011;8353;47.856;12.344;2023-02-28T01:14:18;4.70;;;3.23;;
16484;SDS011;8353;47.856;12.344;2023-02-28T01:16:50;5.70;;;3.67;;
16484;SDS011;8353;47.856;12.344;2023-02-28T01:19:21;5.73;;;3.60;;
16484;SDS011;8353;47.856;12.344;2023-02-28T01:21:52;7.07;;;3.10;;
16484;SDS011;8353;47.856;12.344;2023-02-28T01:24:23;3.63;;;2.67;;
16484;SDS011;8353;47.856;12.344;2023-02-28T01:26:53;3.00;;;2.70;;
16484;SDS011;8353;47.856;12.344;2023-02-28T01:32:00;13.43;;;4.50;;
16484;SDS011;8353;47.856;12.344;2023-02-28T01:34:30;2.40;;;2.20;;
16484;SDS011;8353;47.856;12.344;2023-02-28T01:37:00;3.27;;;2.60;;
16484;SDS011;8353;47.856;12.344;2023-02-28T01:39:32;4.10;;;3.47;;
16484;SDS011;8353;47.856;12.344;2023-02-28T01:42:03;3.57;;;2.83;;
16484;SDS011;8353;47.856;12.344;2023-02-28T01:47:28;5.33;;;3.67;;
16484;SDS011;8353;47.856;12.344;2023-02-28T01:50:02;2.93;;;2.13;;
16484;SDS011;8353;47.856;12.344;2023-02-28T01:52:36;6.00;;;4.37;;
16484;SDS011;8353;47.856;12.344;2023-02-28T01:55:07;3.63;;;2.53;;
16484;SDS011;8353;47.856;12.344;2023-02-28T01:57:40;4.30;;;3.60;;
16484;SDS011;8353;47.856;12.344;2023-02-28T02:00:16;5.50;;;4.13;;
16484;SDS011;8353;47.856;12.344;2023-02-28T02:02:54;7.77;;;3.50;;
16484;SDS011;8353;47.856;12.344;2023-02-28T02:05:28;3.33;;;3.03;;
16484;SDS011;8353;47.856;12.344;2023-02-28T02:08:02;5.30;;;3.97;;
16484;SDS011;8353;47.856;12.344;2023-02-28T02:10:35;4.73;;;3.50;;
16484;SDS011;8353;47.856;12.344;2023-02-28T02:13:21;2.33;;;2.13;;
16484;SDS011;8353;47.856;12.344;2023-02-28T02:16:04;3.50;;;3.20;;
16484;SDS011;8353;47.856;12.344;2023-02-28T02:18:46;6.23;;;3.93;;
16484;SDS011;8353;47.856;12.344;2023-02-28T02:24:32;4.73;;;3.77;;
16484;SDS011;8353;47.856;12.344;2023-02-28T02:27:18;2.73;;;2.53;;
16484;SDS011;8353;47.856;12.344;2023-02-28T02:30:06;3.70;;;2.50;;
16484;SDS011;8353;47.856;12.344;2023-02-28T02:33:05;2.93;;;2.47;;
16484;SDS011;8353;47.856;12.344;2023-02-28T02:35:57;5.20;;;4.70;;
16484;SDS011;8353;47.856;12.344;2023-02-28T02:38:32;3.93;;;2.40;;
16484;SDS011;8353;47.856;12.344;2023-02-28T02:41:08;4.73;;;4.03;;
16484;SDS011;8353;47.856;12.344;2023-02-28T02:43:44;2.50;;;2.30;;
16484;SDS011;8353;47.856;12.344;2023-02-28T02:46:20;4.27;;;3.50;;
16484;SDS011;8353;47.856;12.344;2023-02-28T02:48:53;4.20;;;3.03;;
16484;SDS011;8353;47.856;12.344;2023-02-28T02:51:30;2.70;;;2.50;;
16484;SDS011;8353;47.856;12.344;2023-02-28T02:54:03;2.77;;;2.40;;
16484;SDS011;8353;47.856;12.344;2023-02-28T02:56:38;3.77;;;2.53;;
16484;SDS011;8353;47.856;12.344;2023-02-28T02:59:11;2.60;;;2.03;;
16484;SDS011;8353;47.856;12.344;2023-02-28T03:01:43;3.20;;;2.53;;
16484;SDS011;8353;47.856;12.344;2023-02-28T03:04:14;3.40;;;2.87;;
16484;SDS011;8353;47.856;12.344;2023-02-28T03:06:49;3.33;;;2.33;;
16484;SDS011;8353;47.856;12.344;2023-02-28T03:09:24;2.77;;;2.47;;
16484;SDS011;8353;47.856;12.344;2023-02-28T03:11:55;3.17;;;2.57;;
16484;SDS011;8353;47.856;12.344;2023-02-28T03:14:30;2.50;;;2.03;;
16484;SDS011;8353;47.856;12.344;2023-02-28T03:17:16;3.53;;;2.73;;
16484;SDS011;8353;47.856;12.344;2023-02-28T03:20:01;1.70;;;1.60;;
16484;SDS011;8353;47.856;12.344;2023-02-28T03:22:49;2.50;;;2.30;;
16484;SDS011;8353;47.856;12.344;2023-02-28T03:25:27;2.47;;;2.27;;
16484;SDS011;8353;47.856;12.344;2023-02-28T03:28:05;2.40;;;2.20;;
16484;SDS011;8353;47.856;12.344;2023-02-28T03:30:42;3.40;;;2.57;;
16484;SDS011;8353;47.856;12.344;2023-02-28T03:33:21;2.33;;;2.03;;
16484;SDS011;8353;47.856;12.344;2023-02-28T03:35:54;2.80;;;2.23;;
16484;SDS011;8353;47.856;12.344;2023-02-28T03:38:31;3.00;;;2.70;;
16484;SDS011;8353;47.856;12.344;2023-02-28T03:41:09;2.70;;;2.17;;
16484;SDS011;8353;47.856;12.344;2023-02-28T03:43:44;4.47;;;2.37;;
16484;SDS011;8353;47.856;12.344;2023-02-28T03:46:19;2.77;;;2.50;;
16484;SDS011;8353;47.856;12.344;2023-02-28T03:48:54;3.47;;;2.37;;
16484;SDS011;8353;47.856;12.344;2023-02-28T03:51:27;3.27;;;2.60;;
16484;SDS011;8353;47.856;12.344;2023-02-28T03:54:02;2.40;;;2.20;;
16484;SDS011;8353;47.856;12.344;2023-02-28T03:56:37;3.20;;;2.90;;
16484;SDS011;8353;47.856;12.344;2023-02-28T03:59:12;2.67;;;2.37;;
16484;SDS011;8353;47.856;12.344;2023-02-28T04:01:46;2.47;;;2.10;;
16484;SDS011;8353;47.856;12.344;2023-02-28T04:04:18;3.33;;;2.50;;
16484;SDS011;8353;47.856;12.344;2023-02-28T04:06:49;3.10;;;2.50;;
16484;SDS011;8353;47.856;12.344;2023-02-28T04:09:22;3.03;;;2.13;;
16484;SDS011;8353;47.856;12.344;2023-02-28T04:11:52;2.53;;;2.30;;
16484;SDS011;8353;47.856;12.344;2023-02-28T04:14:24;4.53;;;3.07;;
16484;SDS011;8353;47.856;12.344;2023-02-28T04:16:55;4.17;;;2.60;;
16484;SDS011;8353;47.856;12.344;2023-02-28T04:19:26;2.60;;;2.40;;
16484;SDS011;8353;47.856;12.344;2023-02-28T04:21:56;2.93;;;2.40;;
16484;SDS011;8353;47.856;12.344;2023-02-28T04:24:28;2.93;;;2.43;;
16484;SDS011;8353;47.856;12.344;2023-02-28T04:26:58;3.17;;;2.73;;
16484;SDS011;8353;47.856;12.344;2023-02-28T04:29:30;2.13;;;1.93;;
16484;SDS011;8353;47.856;12.344;2023-02-28T04:32:02;3.10;;;2.20;;
16484;SDS011;8353;47.856;12.344;2023-02-28T04:34:32;3.03;;;2.50;;
16484;SDS011;8353;47.856;12.344;2023-02-28T04:37:03;2.97;;;2.63;;
16484;SDS011;8353;47.856;12.344;2023-02-28T04:39:36;5.27;;;4.00;;
16484;SDS011;8353;47.856;12.344;2023-02-28T04:42:06;3.47;;;3.00;;
16484;SDS011;8353;47.856;12.344;2023-02-28T04:44:36;3.00;;;2.47;;
16484;SDS011;8353;47.856;12.344;2023-02-28T04:47:07;2.90;;;2.53;;
16484;SDS011;8353;47.856;12.344;2023-02-28T04:49:38;3.57;;;2.57;;
16484;SDS011;8353;47.856;12.344;2023-02-28T04:52:09;3.63;;;3.20;;
16484;SDS011;8353;47.856;12.344;2023-02-28T04:54:41;2.83;;;2.60;;
16484;SDS011;8353;47.856;12.344;2023-02-28T04:57:12;4.40;;;2.70;;
16484;SDS011;8353;47.856;12.344;2023-02-28T04:59:43;3.03;;;2.50;;
16484;SDS011;8353;47.856;12.344;2023-02-28T05:02:13;4.80;;;2.60;;
16484;SDS011;8353;47.856;12.344;2023-02-28T05:04:44;2.53;;;2.33;;
16484;SDS011;8353;47.856;12.344;2023-02-28T05:07:14;2.57;;;2.00;;
16484;SDS011;8353;47.856;12.344;2023-02-28T05:09:46;2.63;;;2.43;;
16484;SDS011;8353;47.856;12.344;2023-02-28T05:12:17;5.17;;;2.93;;
16484;SDS011;8353;47.856;12.344;2023-02-28T05:14:47;3.40;;;2.67;;
16484;SDS011;8353;47.856;12.344;2023-02-28T05:17:18;2.43;;;2.20;;
16484;SDS011;8353;47.856;12.344;2023-02-28T05:19:48;2.57;;;2.37;;
16484;SDS011;8353;47.856;12.344;2023-02-28T05:22:20;7.80;;;2.90;;
16484;SDS011;8353;47.856;12.344;2023-02-28T05:24:52;2.77;;;2.00;;
16484;SDS011;8353;47.856;12.344;2023-02-28T05:27:23;2.50;;;2.30;;
16484;SDS011;8353;47.856;12.344;2023-02-28T05:29:53;2.77;;;2.57;;
16484;SDS011;8353;47.856;12.344;2023-02-28T05:32:24;3.67;;;3.33;;
16484;SDS011;8353;47.856;12.344;2023-02-28T05:34:54;4.20;;;2.20;;
16484;SDS011;8353;47.856;12.344;2023-02-28T05:37:25;2.50;;;2.20;;
16484;SDS011;8353;47.856;12.344;2023-02-28T05:39:56;6.07;;;4.00;;
16484;SDS011;8353;47.856;12.344;2023-02-28T05:42:27;4.83;;;2.77;;
16484;SDS011;8353;47.856;12.344;2023-02-28T05:44:57;3.17;;;2.40;;
16484;SDS011;8353;47.856;12.344;2023-02-28T05:47:28;3.77;;;2.47;;
16484;SDS011;8353;47.856;12.344;2023-02-28T05:49:58;4.00;;;3.53;;
16484;SDS011;8353;47.856;12.344;2023-02-28T05:52:29;2.13;;;2.00;;
16484;SDS011;8353;47.856;12.344;2023-02-28T05:55:01;4.47;;;2.87;;
16484;SDS011;8353;47.856;12.344;2023-02-28T05:57:32;3.40;;;3.07;;
16484;SDS011;8353;47.856;12.344;2023-02-28T06:00:04;3.73;;;2.80;;
16484;SDS011;8353;47.856;12.344;2023-02-28T06:02:36;2.80;;;2.57;;
16484;SDS011;8353;47.856;12.344;2023-02-28T06:05:09;4.67;;;3.83;;
16484;SDS011;8353;47.856;12.344;2023-02-28T06:07:44;2.97;;;2.73;;
16484;SDS011;8353;47.856;12.344;2023-02-28T06:10:16;3.23;;;2.77;;
16484;SDS011;8353;47.856;12.344;2023-02-28T06:12:46;2.93;;;2.47;;
16484;SDS011;8353;47.856;12.344;2023-02-28T06:15:17;7.63;;;4.30;;
16484;SDS011;8353;47.856;12.344;2023-02-28T06:17:49;2.53;;;2.33;;
16484;SDS011;8353;47.856;12.344;2023-02-28T06:20:21;3.37;;;2.90;;
16484;SDS011;8353;47.856;12.344;2023-02-28T06:22:52;4.03;;;3.00;;
16484;SDS011;8353;47.856;12.344;2023-02-28T06:25:26;4.23;;;3.33;;
16484;SDS011;8353;47.856;12.344;2023-02-28T06:27:57;6.37;;;3.40;;
16484;SDS011;8353;47.856;12.344;2023-02-28T06:30:27;4.80;;;3.77;;
16484;SDS011;8353;47.856;12.344;2023-02-28T06:32:59;3.20;;;2.90;;
16484;SDS011;8353;47.856;12.344;2023-02-28T06:35:30;4.30;;;3.83;;
16484;SDS011;8353;47.856;12.344;2023-02-28T06:38:03;4.50;;;3.80;;
16484;SDS011;8353;47.856;12.344;2023-02-28T06:40:35;5.67;;;4.90;;
16484;SDS011;8353;47.856;12.344;2023-02-28T06:43:06;9.53;;;6.90;;
16484;SDS011;8353;47.856;12.344;2023-02-28T06:45:36;7.00;;;5.40;;
16484;SDS011;8353;47.856;12.344;2023-02-28T06:48:10;7.90;;;5.40;;
16484;SDS011;8353;47.856;12.344;2023-02-28T06:50:41;6.93;;;5.13;;
16484;SDS011;8353;47.856;12.344;2023-02-28T06:53:11;4.50;;;4.10;;
16484;SDS011;8353;47.856;12.344;2023-02-28T06:55:44;7.20;;;6.50;;
16484;SDS011;8353;47.856;12.344;2023-02-28T06:58:14;7.10;;;6.33;;
16484;SDS011;8353;47.856;12.344;2023-02-28T07:00:50;6.73;;;5.83;;
16484;SDS011;8353;47.856;12.344;2023-02-28T07:03:21;8.10;;;6.23;;
16484;SDS011;8353;47.856;12.344;2023-02-28T07:05:51;4.60;;;4.20;;
16484;SDS011;8353;47.856;12.344;2023-02-28T07:08:22;7.60;;;6.80;;
16484;SDS011;8353;47.856;12.344;2023-02-28T07:10:54;6.70;;;5.57;;
16484;SDS011;8353;47.856;12.344;2023-02-28T07:13:25;7.53;;;6.43;;
16484;SDS011;8353;47.856;12.344;2023-02-28T07:15:56;9.10;;;5.87;;
16484;SDS011;8353;47.856;12.344;2023-02-28T07:18:28;5.87;;;4.17;;
16484;SDS011;8353;47.856;12.344;2023-02-28T07:21:01;5.17;;;4.67;;
16484;SDS011;8353;47.856;12.344;2023-02-28T07:23:32;6.47;;;5.77;;
16484;SDS011;8353;47.856;12.344;2023-02-28T07:26:04;4.77;;;4.27;;
16484;SDS011;8353;47.856;12.344;2023-02-28T07:28:34;5.00;;;4.23;;
16484;SDS011;8353;47.856;12.344;2023-02-28T07:31:05;6.90;;;5.43;;
16484;SDS011;8353;47.856;12.344;2023-02-28T07:33:36;5.97;;;5.03;;
16484;SDS011;8353;47.856;12.344;2023-02-28T07:36:08;7.57;;;6.37;;
16484;SDS011;8353;47.856;12.344;2023-02-28T07:38:44;6.17;;;4.90;;
16484;SDS011;8353;47.856;12.344;2023-02-28T07:41:19;5.00;;;4.00;;
16484;SDS011;8353;47.856;12.344;2023-02-28T07:43:52;4.57;;;3.90;;
16484;SDS011;8353;47.856;12.344;2023-02-28T07:46:23;7.67;;;4.40;;
16484;SDS011;8353;47.856;12.344;2023-02-28T07:48:53;8.37;;;4.53;;
16484;SDS011;8353;47.856;12.344;2023-02-28T07:51:28;8.73;;;4.47;;
16484;SDS011;8353;47.856;12.344;2023-02-28T07:53:58;5.83;;;4.27;;
16484;SDS011;8353;47.856;12.344;2023-02-28T07:56:30;8.80;;;5.20;;
16484;SDS011;8353;47.856;12.344;2023-02-28T07:59:00;23.63;;;7.73;;
16484;SDS011;8353;47.856;12.344;2023-02-28T08:01:31;7.67;;;6.30;;
16484;SDS011;8353;47.856;12.344;2023-02-28T08:04:01;5.90;;;3.70;;
16484;SDS011;8353;47.856;12.344;2023-02-28T08:06:31;4.73;;;4.10;;
16484;SDS011;8353;47.856;12.344;2023-02-28T08:09:02;6.53;;;3.37;;
16484;SDS011;8353;47.856;12.344;2023-02-28T08:11:34;6.30;;;5.13;;
16484;SDS011;8353;47.856;12.344;2023-02-28T08:14:05;12.00;;;6.70;;
16484;SDS011;8353;47.856;12.344;2023-02-28T08:16:35;9.83;;;6.07;;
16484;SDS011;8353;47.856;12.344;2023-02-28T08:19:07;8.40;;;6.33;;
16484;SDS011;8353;47.856;12.344;2023-02-28T08:21:37;9.67;;;5.87;;
16484;SDS011;8353;47.856;12.344;2023-02-28T08:24:08;10.17;;;6.13;;
16484;SDS011;8353;47.856;12.344;2023-02-28T08:26:40;15.77;;;7.43;;
16484;SDS011;8353;47.856;12.344;2023-02-28T08:29:11;13.87;;;7.67;;
16484;SDS011;8353;47.856;12.344;2023-02-28T08:31:42;11.10;;;7.17;;
16484;SDS011;8353;47.856;12.344;2023-02-28T08:34:13;9.83;;;6.50;;
16484;SDS011;8353;47.856;12.344;2023-02-28T08:36:45;11.63;;;8.20;;
16484;SDS011;8353;47.856;12.344;2023-02-28T08:39:15;5.23;;;4.30;;
16484;SDS011;8353;47.856;12.344;2023-02-28T08:41:48;12.13;;;8.63;;
16484;SDS011;8353;47.856;12.344;2023-02-28T08:44:18;6.53;;;4.50;;
16484;SDS011;8353;47.856;12.344;2023-02-28T08:46:49;17.87;;;9.33;;
16484;SDS011;8353;47.856;12.344;2023-02-28T08:49:19;10.03;;;5.33;;
16484;SDS011;8353;47.856;12.344;2023-02-28T08:51:50;11.60;;;8.90;;
16484;SDS011;8353;47.856;12.344;2023-02-28T08:54:20;7.60;;;5.90;;
16484;SDS011;8353;47.856;12.344;2023-02-28T08:56:53;12.60;;;7.60;;
16484;SDS011;8353;47.856;12.344;2023-02-28T08:59:23;12.87;;;9.83;;
16484;SDS011;8353;47.856;12.344;2023-02-28T09:01:53;11.43;;;8.87;;
16484;SDS011;8353;47.856;12.344;2023-02-28T09:04:24;14.53;;;10.70;;
16484;SDS011;8353;47.856;12.344;2023-02-28T09:06:54;10.73;;;8.57;;
16484;SDS011;8353;47.856;12.344;2023-02-28T09:09:25;13.33;;;9.20;;
16484;SDS011;8353;47.856;12.344;2023-02-28T09:11:57;16.13;;;10.30;;
16484;SDS011;8353;47.856;12.344;2023-02-28T09:14:28;19.83;;;11.30;;
16484;SDS011;8353;47.856;12.344;2023-02-28T09:16:59;13.87;;;9.13;;
16484;SDS011;8353;47.856;12.344;2023-02-28T09:19:29;10.33;;;7.13;;
16484;SDS011;8353;47.856;12.344;2023-02-28T09:22:00;17.50;;;11.43;;
16484;SDS011;8353;47.856;12.344;2023-02-28T09:24:30;23.27;;;12.17;;
16484;SDS011;8353;47.856;12.344;2023-02-28T09:27:03;15.83;;;10.43;;
16484;SDS011;8353;47.856;12.344;2023-02-28T09:29:34;12.73;;;10.10;;
16484;SDS011;8353;47.856;12.344;2023-02-28T09:32:05;20.50;;;11.00;;
16484;SDS011;8353;47.856;12.344;2023-02-28T09:34:36;10.87;;;8.37;;
16484;SDS011;8353;47.856;12.344;2023-02-28T09:37:07;15.80;;;11.40;;
16484;SDS011;8353;47.856;12.344;2023-02-28T09:39:38;17.93;;;9.13;;
16484;SDS011;8353;47.856;12.344;2023-02-28T09:42:12;9.37;;;6.17;;
16484;SDS011;8353;47.856;12.344;2023-02-28T09:44:50;17.00;;;11.33;;
16484;SDS011;8353;47.856;12.344;2023-02-28T09:47:25;17.70;;;10.67;;
16484;SDS011;8353;47.856;12.344;2023-02-28T09:50:06;13.70;;;8.03;;
16484;SDS011;8353;47.856;12.344;2023-02-28T09:52:44;19.07;;;10.70;;
16484;SDS011;8353;47.856;12.344;2023-02-28T09:55:19;12.00;;;7.97;;
16484;SDS011;8353;47.856;12.344;2023-02-28T09:57:58;15.43;;;10.87;;
16484;SDS011;8353;47.856;12.344;2023-02-28T10:00:30;14.53;;;10.17;;
16484;SDS011;8353;47.856;12.344;2023-02-28T10:03:05;12.13;;;7.43;;
16484;SDS011;8353;47.856;12.344;2023-02-28T10:05:47;10.53;;;6.30;;
16484;SDS011;8353;47.856;12.344;2023-02-28T10:08:24;16.70;;;12.53;;
16484;SDS011;8353;47.856;12.344;2023-02-28T10:10:57;9.73;;;6.67;;
16484;SDS011;8353;47.856;12.344;2023-02-28T10:13:33;11.00;;;8.00;;
16484;SDS011;8353;47.856;12.344;2023-02-28T10:16:07;12.40;;;9.40;;
16484;SDS011;8353;47.856;12.344;2023-02-28T10:18:43;14.07;;;10.47;;
16484;SDS011;8353;47.856;12.344;2023-02-28T10:21:18;13.40;;;9.97;;
16484;SDS011;8353;47.856;12.344;2023-02-28T10:23:56;10.77;;;9.00;;
16484;SDS011;8353;47.856;12.344;2023-02-28T10:26:33;14.13;;;10.93;;
16484;SDS011;8353;47.856;12.344;2023-02-28T10:29:04;10.03;;;7.90;;
16484;SDS011;8353;47.856;12.344;2023-02-28T10:31:37;11.67;;;7.73;;
16484;SDS011;8353;47.856;12.344;2023-02-28T10:34:10;11.20;;;7.83;;
16484;SDS011;8353;47.856;12.344;2023-02-28T10:36:43;13.93;;;10.50;;
16484;SDS011;8353;47.856;12.344;2023-02-28T10:39:34;12.27;;;8.23;;
16484;SDS011;8353;47.856;12.344;2023-02-28T10:42:20;14.97;;;8.63;;
16484;SDS011;8353;47.856;12.344;2023-02-28T10:45:06;8.83;;;6.53;;
16484;SDS011;8353;47.856;12.344;2023-02-28T10:47:49;13.27;;;10.57;;
16484;SDS011;8353;47.856;12.344;2023-02-28T10:50:29;8.83;;;7.60;;
16484;SDS011;8353;47.856;12.344;2023-02-28T10:53:17;16.97;;;12.37;;
16484;SDS011;8353;47.856;12.344;2023-02-28T10:55:59;11.50;;;9.37;;
16484;SDS011;8353;47.856;12.344;2023-02-28T10:58:47;13.43;;;10.03;;
16484;SDS011;8353;47.856;12.344;2023-02-28T11:01:24;14.60;;;9.53;;
16484;SDS011;8353;47.856;12.344;2023-02-28T11:04:03;10.07;;;6.43;;
16484;SDS011;8353;47.856;12.344;2023-02-28T11:06:48;12.47;;;10.27;;
16484;SDS011;8353;47.856;12.344;2023-02-28T11:09:27;19.90;;;11.50;;
16484;SDS011;8353;47.856;12.344;2023-02-28T11:11:59;7.37;;;6.03;;
16484;SDS011;8353;47.856;12.344;2023-02-28T11:14:31;6.87;;;5.37;;
16484;SDS011;8353;47.856;12.344;2023-02-28T11:17:13;7.03;;;5.37;;
16484;SDS011;8353;47.856;12.344;2023-02-28T11:19:50;13.00;;;7.57;;
16484;SDS011;8353;47.856;12.344;2023-02-28T11:22:23;13.03;;;9.67;;
16484;SDS011;8353;47.856;12.344;2023-02-28T11:24:59;12.27;;;9.07;;
16484;SDS011;8353;47.856;12.344;2023-02-28T11:27:48;10.53;;;8.33;;
16484;SDS011;8353;47.856;12.344;2023-02-28T11:30:27;8.23;;;5.80;;
16484;SDS011;8353;47.856;12.344;2023-02-28T11:35:52;15.60;;;10.83;;
16484;SDS011;8353;47.856;12.344;2023-02-28T11:38:28;19.00;;;12.10;;
16484;SDS011;8353;47.856;12.344;2023-02-28T11:41:05;6.40;;;5.23;;
16484;SDS011;8353;47.856;12.344;2023-02-28T11:43:53;11.83;;;9.10;;
16484;SDS011;8353;47.856;12.344;2023-02-28T11:46:37;17.97;;;11.07;;
16484;SDS011;8353;47.856;12.344;2023-02-28T11:49:16;8.50;;;7.03;;
16484;SDS011;8353;47.856;12.344;2023-02-28T11:52:06;8.50;;;7.03;;
16484;SDS011;8353;47.856;12.344;2023-02-28T11:54:51;8.27;;;6.60;;
16484;SDS011;8353;47.856;12.344;2023-02-28T11:57:41;9.87;;;6.37;;
16484;SDS011;8353;47.856;12.344;2023-02-28T12:00:40;14.43;;;11.03;;
16484;SDS011;8353;47.856;12.344;2023-02-28T12:03:28;12.30;;;9.80;;
16484;SDS011;8353;47.856;12.344;2023-02-28T12:06:13;12.73;;;9.23;;
16484;SDS011;8353;47.856;12.344;2023-02-28T12:08:54;10.50;;;8.07;;
16484;SDS011;8353;47.856;12.344;2023-02-28T12:11:41;13.23;;;10.17;;
16484;SDS011;8353;47.856;12.344;2023-02-28T12:14:40;19.60;;;12.13;;
16484;SDS011;8353;47.856;12.344;2023-02-28T12:17:37;9.97;;;8.77;;
16484;SDS011;8353;47.856;12.344;2023-02-28T12:20:23;8.53;;;6.83;;
16484;SDS011;8353;47.856;12.344;2023-02-28T12:23:03;12.80;;;7.93;;
16484;SDS011;8353;47.856;12.344;2023-02-28T12:25:56;7.77;;;6.53;;
16484;SDS011;8353;47.856;12.344;2023-02-28T12:28:40;16.13;;;12.20;;
16484;SDS011;8353;47.856;12.344;2023-02-28T12:31:16;13.07;;;9.70;;
16484;SDS011;8353;47.856;12.344;2023-02-28T12:33:51;12.63;;;8.70;;
16484;SDS011;8353;47.856;12.344;2023-02-28T12:36:23;10.13;;;7.40;;
16484;SDS011;8353;47.856;12.344;2023-02-28T12:38:58;17.40;;;12.13;;
16484;SDS011;8353;47.856;12.344;2023-02-28T12:41:34;16.53;;;10.50;;
16484;SDS011;8353;47.856;12.344;2023-02-28T12:44:09;9.87;;;7.53;;
16484;SDS011;8353;47.856;12.344;2023-02-28T12:46:44;9.57;;;8.03;;
16484;SDS011;8353;47.856;12.344;2023-02-28T12:49:17;9.23;;;7.67;;
16484;SDS011;8353;47.856;12.344;2023-02-28T12:51:51;11.87;;;8.47;;
16484;SDS011;8353;47.856;12.344;2023-02-28T12:54:24;7.20;;;5.43;;
16484;SDS011;8353;47.856;12.344;2023-02-28T12:57:01;10.33;;;7.30;;
16484;SDS011;8353;47.856;12.344;2023-02-28T12:59:40;8.37;;;6.23;;
16484;SDS011;8353;47.856;12.344;2023-02-28T13:02:38;8.67;;;6.83;;
16484;SDS011;8353;47.856;12.344;2023-02-28T13:09:02;8.43;;;6.97;;
16484;SDS011;8353;47.856;12.344;2023-02-28T13:11:39;14.70;;;10.93;;
16484;SDS011;8353;47.856;12.344;2023-02-28T13:14:16;20.77;;;12.33;;
16484;SDS011;8353;47.856;12.344;2023-02-28T13:16:58;8.30;;;6.90;;
16484;SDS011;8353;47.856;12.344;2023-02-28T13:19:32;10.07;;;7.73;;
16484;SDS011;8353;47.856;12.344;2023-02-28T13:22:05;10.70;;;8.53;;
16484;SDS011;8353;47.856;12.344;2023-02-28T13:24:46;8.13;;;6.00;;
16484;SDS011;8353;47.856;12.344;2023-02-28T13:27:23;13.67;;;10.53;;
16484;SDS011;8353;47.856;12.344;2023-02-28T13:33:23;10.33;;;8.10;;
16484;SDS011;8353;47.856;12.344;2023-02-28T13:36:06;13.00;;;9.83;;
16484;SDS011;8353;47.856;12.344;2023-02-28T13:38:39;17.83;;;12.50;;
16484;SDS011;8353;47.856;12.344;2023-02-28T13:44:19;13.07;;;9.90;;
16484;SDS011;8353;47.856;12.344;2023-02-28T13:49:50;15.67;;;11.87;;
16484;SDS011;8353;47.856;12.344;2023-02-28T13:52:22;10.40;;;8.60;;
16484;SDS011;8353;47.856;12.344;2023-02-28T13:55:06;16.80;;;11.17;;
16484;SDS011;8353;47.856;12.344;2023-02-28T13:58:02;16.30;;;11.07;;
16484;SDS011;8353;47.856;12.344;2023-02-28T14:00:46;12.60;;;8.20;;
16484;SDS011;8353;47.856;12.344;2023-02-28T14:03:38;16.97;;;11.40;;
16484;SDS011;8353;47.856;12.344;2023-02-28T14:06:24;14.20;;;11.67;;
16484;SDS011;8353;47.856;12.344;2023-02-28T14:08:58;10.53;;;8.80;;
16484;SDS011;8353;47.856;12.344;2023-02-28T14:11:33;11.87;;;8.47;;
16484;SDS011;8353;47.856;12.344;2023-02-28T14:14:05;9.77;;;7.67;;
16484;SDS011;8353;47.856;12.344;2023-02-28T14:16:40;13.97;;;10.83;;
16484;SDS011;8353;47.856;12.344;2023-02-28T14:19:15;10.43;;;8.47;;
16484;SDS011;8353;47.856;12.344;2023-02-28T14:21:56;12.17;;;8.93;;
16484;SDS011;8353;47.856;12.344;2023-02-28T14:24:51;12.53;;;8.13;;
16484;SDS011;8353;47.856;12.344;2023-02-28T14:27:45;13.97;;;11.73;;
16484;SDS011;8353;47.856;12.344;2023-02-28T14:33:38;15.10;;;11.60;;
16484;SDS011;8353;47.856;12.344;2023-02-28T14:36:27;18.90;;;11.53;;
16484;SDS011;8353;47.856;12.344;2023-02-28T14:39:04;13.87;;;9.43;;
16484;SDS011;8353;47.856;12.344;2023-02-28T14:41:37;14.67;;;12.43;;
16484;SDS011;8353;47.856;12.344;2023-02-28T14:44:14;10.73;;;9.53;;
16484;SDS011;8353;47.856;12.344;2023-02-28T14:46:46;12.10;;;9.63;;
16484;SDS011;8353;47.856;12.344;2023-02-28T14:49:21;12.63;;;9.97;;
16484;SDS011;8353;47.856;12.344;2023-02-28T14:52:02;28.73;;;13.67;;
16484;SDS011;8353;47.856;12.344;2023-02-28T14:54:38;14.93;;;9.50;;
16484;SDS011;8353;47.856;12.344;2023-02-28T14:57:20;16.43;;;12.20;;
16484;SDS011;8353;47.856;12.344;2023-02-28T14:59:59;15.37;;;12.07;;
16484;SDS011;8353;47.856;12.344;2023-02-28T15:02:33;14.10;;;9.43;;
16484;SDS011;8353;47.856;12.344;2023-02-28T15:05:21;12.47;;;8.43;;
16484;SDS011;8353;47.856;12.344;2023-02-28T15:08:02;20.30;;;11.83;;
16484;SDS011;8353;47.856;12.344;2023-02-28T15:10:35;16.60;;;10.47;;
16484;SDS011;8353;47.856;12.344;2023-02-28T15:13:06;15.37;;;11.70;;
16484;SDS011;8353;47.856;12.344;2023-02-28T15:15:45;20.53;;;10.93;;
16484;SDS011;8353;47.856;12.344;2023-02-28T15:18:22;7.80;;;6.50;;
16484;SDS011;8353;47.856;12.344;2023-02-28T15:21:01;10.57;;;8.17;;
16484;SDS011;8353;47.856;12.344;2023-02-28T15:23:35;16.17;;;11.00;;
16484;SDS011;8353;47.856;12.344;2023-02-28T15:26:07;11.67;;;9.83;;
16484;SDS011;8353;47.856;12.344;2023-02-28T15:28:40;11.37;;;9.00;;
16484;SDS011;8353;47.856;12.344;2023-02-28T15:31:21;14.17;;;10.33;;
16484;SDS011;8353;47.856;12.344;2023-02-28T15:33:58;21.87;;;12.67;;
16484;SDS011;8353;47.856;12.344;2023-02-28T15:36:35;20.07;;;11.83;;
16484;SDS011;8353;47.856;12.344;2023-02-28T15:39:17;16.77;;;12.03;;
16484;SDS011;8353;47.856;12.344;2023-02-28T15:41:50;14.20;;;10.03;;
16484;SDS011;8353;47.856;12.344;2023-02-28T15:44:24;11.57;;;7.37;;
16484;SDS011;8353;47.856;12.344;2023-02-28T15:46:59;9.33;;;7.40;;
16484;SDS011;8353;47.856;12.344;2023-02-28T15:49:34;13.53;;;11.03;;
16484;SDS011;8353;47.856;12.344;2023-02-28T15:52:12;9.23;;;7.17;;
16484;SDS011;8353;47.856;12.344;2023-02-28T15:54:46;12.37;;;9.43;;